Metar Aviation Weather Data LFTW

22°C Temp
15°C Dewpoint
% Humidity
Temperature
29 KM/H
18 MPH
16 KTS
160°
South South
East

Wind Speed
Mostly Cloudy
Conditions
Pressure 1015.92 (hPa) - 30 (in)
Visibility 6.2 (mi) - 10.0 (km)

Current Conditions
LFTW
Metar :LFTW 171330Z AUTO 16016KT 120V190 9999 BKN028 BKN036 BKN043 22/15 Q1016 TEMPO BKN030TCU
Thu 17th October 15:30 pm

  Metar Aviation API Data Provided by https://www.checkwx.com/ PHP scripts by weather34.com ©2019